Time;durP1;ratioP1;P1;durP2;ratioP2;P2;SDS_P1;SDS_P2;PMS_P1;PMS_P2;Temp;Humidity;BMP_temperature;BMP_pressure;BME280_temperature;BME280_humidity;BME280_pressure;Samples;Min_cycle;Max_cycle;Signal;HPM_P1;HPM_P2
2020/12/17 00:00:59;;;;;;;;;;;;;;;;;;2054912;28;7125;-65
2020/12/17 00:02:02;;;;;;;;;;;;;;;;;;2055472;28;7045;-64
2020/12/17 00:03:04;;;;;;;;;;;;;;;;;;2055405;28;7127;-66
2020/12/17 00:04:06;;;;;;;;;;;;;;;;;;2055326;28;7089;-65
2020/12/17 00:05:12;;;;;;;;;;;;;;;;;;2055879;28;7297;-67
2020/12/17 00:06:14;;;;;;;;;;;;;;;;;;2054994;28;7033;-66
2020/12/17 00:07:16;;;;;;;;;;;;;;;;;;2055492;28;7010;-67
2020/12/17 00:08:18;;;;;;;;;;;;;;;;;;2058891;28;8865;-66
2020/12/17 00:09:21;;;;;;;;;;;;;;;;;;2062834;28;7101;-69
2020/12/17 00:10:23;;;;;;;;;;;;;;;;;;2063145;28;7010;-70
2020/12/17 00:11:25;;;;;;;;;;;;;;;;;;2063351;28;7359;-66
2020/12/17 00:12:27;;;;;;;;;;;;;;;;;;2063470;28;7124;-67
2020/12/17 00:13:29;;;;;;;;;;;;;;;;;;2063657;28;7181;-66
2020/12/17 00:14:33;;;;;;;;;;;;;;;;;;2063244;28;8032;-67
2020/12/17 00:15:35;;;;;;;;;;;;;;;;;;2063923;28;7044;-68
2020/12/17 00:16:37;;;;;;;;;;;;;;;;;;2063608;28;7093;-66
2020/12/17 00:17:40;;;;;;;;;;;;;;;;;;2063514;28;8114;-64
2020/12/17 00:18:42;;;;;;;;;;;;;;;;;;2063393;28;7006;-64
2020/12/17 00:19:44;;;;;;;;;;;;;;;;;;2063792;28;7013;-65
2020/12/17 00:20:46;;;;;;;;;;;;;;;;;;2063651;28;7030;-66
2020/12/17 00:21:47;;;;;;;;;;;;;;;;;;2055693;28;7025;-65
2020/12/17 00:22:49;;;;;;;;;;;;;;;;;;2055618;28;7578;-65
2020/12/17 00:23:52;;;;;;;;;;;;;;;;;;2055284;28;7138;-65
2020/12/17 00:24:54;;;;;;;;;;;;;;;;;;2063456;28;7017;-64
2020/12/17 00:25:56;;;;;;;;;;;;;;;;;;2063527;28;7009;-67
2020/12/17 00:26:58;;;;;;;;;;;;;;;;;;2062957;28;7054;-65
2020/12/17 00:28:00;;;;;;;;;;;;;;;;;;2063240;28;7042;-65
2020/12/17 00:29:02;;;;;;;;;;;;;;;;;;2063599;28;7108;-66
2020/12/17 00:30:09;;;;;;;;;;;;;;;;;;2054933;28;7021;-64
2020/12/17 00:31:15;;;;;;;;;;;;;;;;;;2055715;28;7048;-67
2020/12/17 00:32:17;;;;;;;;;;;;;;;;;;2055455;28;7045;-68
2020/12/17 00:33:19;;;;;;;;;;;;;;;;;;2055023;28;7013;-67
2020/12/17 00:34:21;;;;;;;;;;;;;;;;;;2055510;28;7010;-68
2020/12/17 00:35:23;;;;;;;;;;;;;;;;;;2055126;28;7106;-66
2020/12/17 00:36:25;;;;;;;;;;;;;;;;;;2055254;28;7014;-68
2020/12/17 00:37:30;;;;;;;;;;;;;;;;;;2055012;28;7009;-65
2020/12/17 00:38:32;;;;;;;;;;;;;;;;;;2055223;28;7010;-66
2020/12/17 00:39:34;;;;;;;;;;;;;;;;;;2054916;28;7005;-66
2020/12/17 00:40:36;;;;;;;;;;;;;;;;;;2055174;28;9082;-67
2020/12/17 00:41:38;;;;;;;;;;;;;;;;;;2055305;28;7093;-67
2020/12/17 00:42:41;;;;;;;;;;;;;;;;;;2054629;28;7005;-68
2020/12/17 00:43:44;;;;;;;;;;;;;;;;;;2055515;28;7022;-68
2020/12/17 00:44:46;;;;;;;;;;;;;;;;;;2054170;28;7014;-66
2020/12/17 00:45:48;;;;;;;;;;;;;;;;;;2055730;28;7049;-63
2020/12/17 00:46:50;;;;;;;;;;;;;;;;;;2064291;28;7140;-66
2020/12/17 00:47:53;;;;;;;;;;;;;;;;;;2063612;28;8035;-64
2020/12/17 00:48:55;;;;;;;;;;;;;;;;;;2063245;28;7009;-68
2020/12/17 00:49:57;;;;;;;;;;;;;;;;;;2061072;28;8500;-67
2020/12/17 00:51:00;;;;;;;;;;;;;;;;;;2055468;28;8972;-66
2020/12/17 00:52:02;;;;;;;;;;;;;;;;;;2055098;28;7002;-64
2020/12/17 00:53:04;;;;;;;;;;;;;;;;;;2055084;28;7092;-67
2020/12/17 00:54:06;;;;;;;;;;;;;;;;;;2054749;28;7006;-67
2020/12/17 00:55:09;;;;;;;;;;;;;;;;;;2055181;28;7010;-66
2020/12/17 00:56:11;;;;;;;;;;;;;;;;;;2046259;28;9254;-66
2020/12/17 00:57:13;;;;;;;;;;;;;;;;;;2046859;28;7150;-67
2020/12/17 00:58:15;;;;;;;;;;;;;;;;;;2051830;28;7132;-64
2020/12/17 00:59:18;;;;;;;;;;;;;;;;;;2054803;28;8009;-64
2020/12/17 01:00:19;;;;;;;;;;;;;;;;;;2063418;28;7117;-67
2020/12/17 01:01:21;;;;;;;;;;;;;;;;;;2063936;28;8076;-68
2020/12/17 01:02:23;;;;;;;;;;;;;;;;;;2062327;28;7121;-64
2020/12/17 01:03:25;;;;;;;;;;;;;;;;;;2051756;28;7986;-65
2020/12/17 01:04:27;;;;;;;;;;;;;;;;;;2054678;28;7093;-67
2020/12/17 01:05:38;;;;;;;;;;;;;;;;;;2054822;28;7038;-65
2020/12/17 01:06:40;;;;;;;;;;;;;;;;;;2055118;28;7146;-67
2020/12/17 01:07:42;;;;;;;;;;;;;;;;;;2054737;28;7129;-65
2020/12/17 01:08:44;;;;;;;;;;;;;;;;;;2054902;28;8048;-67
2020/12/17 01:09:46;;;;;;;;;;;;;;;;;;2055369;28;7029;-67
2020/12/17 01:10:48;;;;;;;;;;;;;;;;;;2055288;28;7021;-65
2020/12/17 01:11:50;;;;;;;;;;;;;;;;;;2054542;28;7328;-68
2020/12/17 01:12:53;;;;;;;;;;;;;;;;;;2054689;28;8004;-66
2020/12/17 01:13:55;;;;;;;;;;;;;;;;;;2054771;28;7014;-68
2020/12/17 01:14:57;;;;;;;;;;;;;;;;;;2054815;28;7089;-68
2020/12/17 01:15:59;;;;;;;;;;;;;;;;;;2055747;28;7614;-65
2020/12/17 01:17:03;;;;;;;;;;;;;;;;;;2063495;28;7042;-69
2020/12/17 01:18:05;;;;;;;;;;;;;;;;;;2063299;28;7030;-68
2020/12/17 01:19:07;;;;;;;;;;;;;;;;;;2062790;28;7037;-63
2020/12/17 01:20:09;;;;;;;;;;;;;;;;;;2060304;28;7113;-66
2020/12/17 01:21:11;;;;;;;;;;;;;;;;;;2056657;28;7018;-67
2020/12/17 01:22:13;;;;;;;;;;;;;;;;;;2062813;28;7010;-67
2020/12/17 01:23:14;;;;;;;;;;;;;;;;;;2062640;28;7329;-66
2020/12/17 01:24:17;;;;;;;;;;;;;;;;;;2063299;28;7089;-65
2020/12/17 01:25:18;;;;;;;;;;;;;;;;;;2053757;28;7306;-65
2020/12/17 01:26:20;;;;;;;;;;;;;;;;;;2055016;28;7043;-66
2020/12/17 01:27:23;;;;;;;;;;;;;;;;;;2054478;28;7398;-64
2020/12/17 01:28:25;;;;;;;;;;;;;;;;;;2063037;28;7117;-70
2020/12/17 01:29:27;;;;;;;;;;;;;;;;;;2063015;28;8315;-64
2020/12/17 01:30:29;;;;;;;;;;;;;;;;;;2062584;28;7009;-65
2020/12/17 01:31:32;;;;;;;;;;;;;;;;;;2063192;28;7010;-64
2020/12/17 01:32:34;;;;;;;;;;;;;;;;;;2063108;28;7030;-66
2020/12/17 01:33:37;;;;;;;;;;;;;;;;;;2063080;28;7025;-67
2020/12/17 01:34:39;;;;;;;;;;;;;;;;;;2062680;28;7010;-66
2020/12/17 01:35:54;;;;;;;;;;;;;;;;;;2062936;28;7149;-66
2020/12/17 01:36:56;;;;;;;;;;;;;;;;;;2062833;28;7018;-65
2020/12/17 01:37:58;;;;;;;;;;;;;;;;;;2062266;28;8088;-65
2020/12/17 01:39:00;;;;;;;;;;;;;;;;;;2062718;28;7110;-67
2020/12/17 01:40:03;;;;;;;;;;;;;;;;;;2063320;28;7010;-65
2020/12/17 01:41:05;;;;;;;;;;;;;;;;;;2054233;28;7013;-67
2020/12/17 01:42:09;;;;;;;;;;;;;;;;;;2054500;28;7146;-68
2020/12/17 01:43:11;;;;;;;;;;;;;;;;;;2055042;28;8097;-65
2020/12/17 01:44:13;;;;;;;;;;;;;;;;;;2054974;28;7967;-67
2020/12/17 01:45:15;;;;;;;;;;;;;;;;;;2063344;28;8005;-70
2020/12/17 01:46:17;;;;;;;;;;;;;;;;;;2062649;28;7129;-67
2020/12/17 01:47:19;;;;;;;;;;;;;;;;;;2062822;28;7006;-67
2020/12/17 01:48:21;;;;;;;;;;;;;;;;;;2062752;28;7009;-67
2020/12/17 01:49:25;;;;;;;;;;;;;;;;;;2063211;28;7100;-65
2020/12/17 01:50:27;;;;;;;;;;;;;;;;;;2063183;28;7010;-65
2020/12/17 01:51:29;;;;;;;;;;;;;;;;;;2062572;28;7130;-66
2020/12/17 01:52:32;;;;;;;;;;;;;;;;;;2062551;28;8043;-66
2020/12/17 01:53:40;;;;;;;;;;;;;;;;;;2062515;28;8052;-68
2020/12/17 01:54:54;;;;;;;;;;;;;;;;;;2062802;28;7038;-64
2020/12/17 01:56:01;;;;;;;;;;;;;;;;;;2054123;28;7096;-65
2020/12/17 01:57:06;;;;;;;;;;;;;;;;;;2055242;28;7313;-67
2020/12/17 01:58:13;;;;;;;;;;;;;;;;;;2055026;28;7034;-64
2020/12/17 01:59:21;;;;;;;;;;;;;;;;;;2046280;28;7895;-67
2020/12/17 02:00:24;;;;;;;;;;;;;;;;;;2047611;28;7038;-67
2020/12/17 02:01:29;;;;;;;;;;;;;;;;;;2054561;28;7093;-68
2020/12/17 02:02:32;;;;;;;;;;;;;;;;;;2055059;28;7113;-66
2020/12/17 02:03:34;;;;;;;;;;;;;;;;;;2054556;28;7009;-66
2020/12/17 02:04:36;;;;;;;;;;;;;;;;;;2055085;28;7050;-65
2020/12/17 02:05:38;;;;;;;;;;;;;;;;;;2056801;28;7254;-68
2020/12/17 02:06:40;;;;;;;;;;;;;;;;;;2063261;28;7968;-65
2020/12/17 02:07:43;;;;;;;;;;;;;;;;;;2062618;28;7050;-66
2020/12/17 02:08:48;;;;;;;;;;;;;;;;;;2062270;28;7092;-68
2020/12/17 02:09:50;;;;;;;;;;;;;;;;;;2062312;28;7010;-70
2020/12/17 02:10:53;;;;;;;;;;;;;;;;;;2062660;28;7325;-68
2020/12/17 02:11:57;;;;;;;;;;;;;;;;;;2055388;28;7092;-66
2020/12/17 02:12:58;;;;;;;;;;;;;;;;;;2054704;28;7109;-67
2020/12/17 02:14:00;;;;;;;;;;;;;;;;;;2055157;28;7093;-68
2020/12/17 02:15:02;;;;;;;;;;;;;;;;;;2055153;28;7014;-68
2020/12/17 02:16:05;;;;;;;;;;;;;;;;;;2054354;28;7089;-67
2020/12/17 02:17:07;;;;;;;;;;;;;;;;;;2054638;28;7010;-66
2020/12/17 02:18:09;;;;;;;;;;;;;;;;;;2054891;28;8049;-67
2020/12/17 02:19:11;;;;;;;;;;;;;;;;;;2055184;28;8072;-66
2020/12/17 02:20:14;;;;;;;;;;;;;;;;;;2053649;28;7013;-66
2020/12/17 02:21:16;;;;;;;;;;;;;;;;;;2057837;28;7062;-65
2020/12/17 02:22:18;;;;;;;;;;;;;;;;;;2056344;28;7050;-70
2020/12/17 02:23:21;;;;;;;;;;;;;;;;;;2062696;28;7013;-65
2020/12/17 02:24:23;;;;;;;;;;;;;;;;;;2062363;28;7218;-64
2020/12/17 02:25:25;;;;;;;;;;;;;;;;;;2062674;28;7130;-66
2020/12/17 02:26:27;;;;;;;;;;;;;;;;;;2062790;28;7148;-67
2020/12/17 02:27:29;;;;;;;;;;;;;;;;;;2062976;28;7373;-65
2020/12/17 02:28:33;;;;;;;;;;;;;;;;;;2062675;28;7050;-64
2020/12/17 02:29:35;;;;;;;;;;;;;;;;;;2063494;28;7046;-68
2020/12/17 02:30:37;;;;;;;;;;;;;;;;;;2062714;28;7981;-66
2020/12/17 02:31:40;;;;;;;;;;;;;;;;;;2063243;28;7038;-67
2020/12/17 02:32:42;;;;;;;;;;;;;;;;;;2059876;28;7092;-68
2020/12/17 02:33:43;;;;;;;;;;;;;;;;;;2056154;28;8060;-66
2020/12/17 02:34:45;;;;;;;;;;;;;;;;;;2056688;28;7097;-68
2020/12/17 02:35:47;;;;;;;;;;;;;;;;;;2056602;28;7058;-67
2020/12/17 02:36:50;;;;;;;;;;;;;;;;;;2056026;28;7416;-67
2020/12/17 02:37:52;;;;;;;;;;;;;;;;;;2064347;28;7433;-67
2020/12/17 02:38:55;;;;;;;;;;;;;;;;;;2055332;28;7029;-67
2020/12/17 02:39:57;;;;;;;;;;;;;;;;;;2056313;28;7010;-69
2020/12/17 02:40:59;;;;;;;;;;;;;;;;;;2056165;28;7017;-65
2020/12/17 02:42:02;;;;;;;;;;;;;;;;;;2056724;28;7039;-67
2020/12/17 02:43:04;;;;;;;;;;;;;;;;;;2056541;28;7006;-65
2020/12/17 02:44:07;;;;;;;;;;;;;;;;;;2056721;28;7010;-66
2020/12/17 02:45:09;;;;;;;;;;;;;;;;;;2056355;28;7129;-65
2020/12/17 02:46:11;;;;;;;;;;;;;;;;;;2056265;28;7038;-67
2020/12/17 02:47:13;;;;;;;;;;;;;;;;;;2056318;28;7081;-64
2020/12/17 02:48:16;;;;;;;;;;;;;;;;;;2055990;28;7074;-65
2020/12/17 02:49:18;;;;;;;;;;;;;;;;;;2056044;28;7109;-65
2020/12/17 02:50:20;;;;;;;;;;;;;;;;;;2056648;28;7050;-69
2020/12/17 02:51:22;;;;;;;;;;;;;;;;;;2056449;28;7010;-67
2020/12/17 02:52:24;;;;;;;;;;;;;;;;;;2055259;28;7022;-67
2020/12/17 02:53:26;;;;;;;;;;;;;;;;;;2056368;28;7029;-66
2020/12/17 02:54:28;;;;;;;;;;;;;;;;;;2056117;28;7092;-67
2020/12/17 02:55:30;;;;;;;;;;;;;;;;;;2056329;28;7084;-66
2020/12/17 02:56:32;;;;;;;;;;;;;;;;;;2055997;28;7088;-64
2020/12/17 02:57:34;;;;;;;;;;;;;;;;;;2056428;28;7010;-64
2020/12/17 02:58:36;;;;;;;;;;;;;;;;;;2056749;28;7279;-66
2020/12/17 02:59:38;;;;;;;;;;;;;;;;;;2055870;28;7045;-67
2020/12/17 03:00:40;;;;;;;;;;;;;;;;;;2056209;28;7046;-66
2020/12/17 03:01:42;;;;;;;;;;;;;;;;;;2055912;28;7105;-67
2020/12/17 03:02:44;;;;;;;;;;;;;;;;;;2056521;28;7089;-66
2020/12/17 03:03:46;;;;;;;;;;;;;;;;;;2056259;28;7121;-68
2020/12/17 03:04:49;;;;;;;;;;;;;;;;;;2056079;28;7010;-69
2020/12/17 03:05:52;;;;;;;;;;;;;;;;;;2055771;28;7046;-67
2020/12/17 03:06:54;;;;;;;;;;;;;;;;;;2056281;28;7089;-66
2020/12/17 03:07:56;;;;;;;;;;;;;;;;;;2056317;28;7416;-64
2020/12/17 03:08:58;;;;;;;;;;;;;;;;;;2056042;28;8016;-65
2020/12/17 03:10:01;;;;;;;;;;;;;;;;;;2055997;28;7105;-68
2020/12/17 03:11:03;;;;;;;;;;;;;;;;;;2055664;28;7010;-65
2020/12/17 03:12:05;;;;;;;;;;;;;;;;;;2055426;28;7025;-64
2020/12/17 03:13:07;;;;;;;;;;;;;;;;;;2056718;28;7018;-65
2020/12/17 03:14:09;;;;;;;;;;;;;;;;;;2055430;28;7010;-68
2020/12/17 03:15:12;;;;;;;;;;;;;;;;;;2055834;28;7005;-68
2020/12/17 03:16:14;;;;;;;;;;;;;;;;;;2055370;28;7041;-67
2020/12/17 03:17:17;;;;;;;;;;;;;;;;;;2055784;28;7089;-67
2020/12/17 03:18:19;;;;;;;;;;;;;;;;;;2055862;28;7010;-68
2020/12/17 03:19:21;;;;;;;;;;;;;;;;;;2055973;28;7010;-65
2020/12/17 03:20:23;;;;;;;;;;;;;;;;;;2056100;28;8082;-65
2020/12/17 03:21:25;;;;;;;;;;;;;;;;;;2060471;28;7029;-65
2020/12/17 03:22:27;;;;;;;;;;;;;;;;;;2063928;28;7073;-66
2020/12/17 03:23:29;;;;;;;;;;;;;;;;;;2063921;28;7073;-65
2020/12/17 03:24:31;;;;;;;;;;;;;;;;;;2063468;28;7092;-66
2020/12/17 03:25:33;;;;;;;;;;;;;;;;;;2063317;28;7473;-66
2020/12/17 03:26:35;;;;;;;;;;;;;;;;;;2055907;28;7229;-68
2020/12/17 03:27:37;;;;;;;;;;;;;;;;;;2056001;28;7042;-65
2020/12/17 03:28:39;;;;;;;;;;;;;;;;;;2055991;28;7017;-67
2020/12/17 03:29:41;;;;;;;;;;;;;;;;;;2055615;28;8033;-68
2020/12/17 03:30:43;;;;;;;;;;;;;;;;;;2055780;28;7113;-66
2020/12/17 03:31:46;;;;;;;;;;;;;;;;;;2056030;28;8039;-67
2020/12/17 03:32:49;;;;;;;;;;;;;;;;;;2055802;28;7014;-65
2020/12/17 03:33:51;;;;;;;;;;;;;;;;;;2055398;28;7010;-66
2020/12/17 03:34:54;;;;;;;;;;;;;;;;;;2055365;28;7038;-67
2020/12/17 03:35:55;;;;;;;;;;;;;;;;;;2055136;28;7097;-66
2020/12/17 03:37:14;;;;;;;;;;;;;;;;;;2055215;28;7105;-64
2020/12/17 03:38:16;;;;;;;;;;;;;;;;;;2055572;28;7093;-68
2020/12/17 03:39:18;;;;;;;;;;;;;;;;;;2055779;28;8056;-67
2020/12/17 03:40:21;;;;;;;;;;;;;;;;;;2056281;28;7121;-63
2020/12/17 03:41:23;;;;;;;;;;;;;;;;;;2055703;28;7085;-67
2020/12/17 03:42:25;;;;;;;;;;;;;;;;;;2055655;28;7038;-66
2020/12/17 03:43:27;;;;;;;;;;;;;;;;;;2055770;28;7045;-66
2020/12/17 03:44:29;;;;;;;;;;;;;;;;;;2054960;28;7009;-65
2020/12/17 03:45:31;;;;;;;;;;;;;;;;;;2056313;28;7010;-66
2020/12/17 03:46:33;;;;;;;;;;;;;;;;;;2054926;28;7006;-67
2020/12/17 03:47:35;;;;;;;;;;;;;;;;;;2061002;28;7089;-66
2020/12/17 03:48:37;;;;;;;;;;;;;;;;;;2063732;28;7092;-65
2020/12/17 03:49:39;;;;;;;;;;;;;;;;;;2063502;28;7009;-64
2020/12/17 03:50:41;;;;;;;;;;;;;;;;;;2063813;28;7092;-65
2020/12/17 03:51:43;;;;;;;;;;;;;;;;;;2063517;28;7088;-64
2020/12/17 03:52:45;;;;;;;;;;;;;;;;;;2063652;28;8111;-64
2020/12/17 03:53:47;;;;;;;;;;;;;;;;;;2063505;28;7018;-64
2020/12/17 03:54:49;;;;;;;;;;;;;;;;;;2063987;28;7029;-66
2020/12/17 03:55:52;;;;;;;;;;;;;;;;;;2063924;28;7010;-65
2020/12/17 03:56:54;;;;;;;;;;;;;;;;;;2063912;28;7092;-65
2020/12/17 03:57:56;;;;;;;;;;;;;;;;;;2063989;28;7088;-69
2020/12/17 03:58:58;;;;;;;;;;;;;;;;;;2064451;28;7034;-66
2020/12/17 04:00:00;;;;;;;;;;;;;;;;;;2054876;28;7074;-67
2020/12/17 04:01:02;;;;;;;;;;;;;;;;;;2056054;28;7058;-64
2020/12/17 04:02:04;;;;;;;;;;;;;;;;;;2055738;28;7131;-65
2020/12/17 04:03:06;;;;;;;;;;;;;;;;;;2056072;28;8053;-67
2020/12/17 04:04:08;;;;;;;;;;;;;;;;;;2055475;28;7010;-63
2020/12/17 04:05:10;;;;;;;;;;;;;;;;;;2055726;28;7046;-65
2020/12/17 04:06:12;;;;;;;;;;;;;;;;;;2055653;28;7002;-64
2020/12/17 04:07:31;;;;;;;;;;;;;;;;;;2055661;28;7321;-66
2020/12/17 04:08:33;;;;;;;;;;;;;;;;;;2054563;28;7058;-66
2020/12/17 04:09:35;;;;;;;;;;;;;;;;;;2055883;28;7010;-65
2020/12/17 04:10:37;;;;;;;;;;;;;;;;;;2055362;28;7045;-68
2020/12/17 04:11:39;;;;;;;;;;;;;;;;;;2054180;28;8021;-64
2020/12/17 04:12:41;;;;;;;;;;;;;;;;;;2055446;28;7046;-67
2020/12/17 04:13:43;;;;;;;;;;;;;;;;;;2055483;28;7014;-68
2020/12/17 04:14:45;;;;;;;;;;;;;;;;;;2055592;28;7093;-64
2020/12/17 04:15:47;;;;;;;;;;;;;;;;;;2055688;28;7080;-66
2020/12/17 04:16:49;;;;;;;;;;;;;;;;;;2055762;28;7109;-67
2020/12/17 04:17:51;;;;;;;;;;;;;;;;;;2055862;28;7110;-67
2020/12/17 04:18:53;;;;;;;;;;;;;;;;;;2055794;28;7050;-65
2020/12/17 04:19:55;;;;;;;;;;;;;;;;;;2055744;28;7308;-67
2020/12/17 04:20:57;;;;;;;;;;;;;;;;;;2055858;28;7009;-66
2020/12/17 04:21:59;;;;;;;;;;;;;;;;;;2063363;28;7046;-68
2020/12/17 04:23:02;;;;;;;;;;;;;;;;;;2063485;28;8052;-64
2020/12/17 04:24:04;;;;;;;;;;;;;;;;;;2063266;28;7046;-67
2020/12/17 04:25:06;;;;;;;;;;;;;;;;;;2063031;28;7005;-67
2020/12/17 04:26:17;;;;;;;;;;;;;;;;;;2063199;28;7006;-65
2020/12/17 04:27:19;;;;;;;;;;;;;;;;;;2063305;28;7013;-66
2020/12/17 04:28:21;;;;;;;;;;;;;;;;;;2062909;28;7150;-68
2020/12/17 04:29:23;;;;;;;;;;;;;;;;;;2062741;28;7005;-64
2020/12/17 04:30:25;;;;;;;;;;;;;;;;;;2063211;28;8035;-66
2020/12/17 04:31:28;;;;;;;;;;;;;;;;;;2054209;28;7351;-65
2020/12/17 04:32:30;;;;;;;;;;;;;;;;;;2055625;28;7088;-67
2020/12/17 04:33:32;;;;;;;;;;;;;;;;;;2055792;28;7089;-67
2020/12/17 04:34:34;;;;;;;;;;;;;;;;;;2054778;28;7025;-66
2020/12/17 04:35:36;;;;;;;;;;;;;;;;;;2055433;28;7017;-66
2020/12/17 04:36:39;;;;;;;;;;;;;;;;;;2055391;28;7163;-67
2020/12/17 04:37:52;;;;;;;;;;;;;;;;;;2055492;28;7014;-67
2020/12/17 04:38:54;;;;;;;;;;;;;;;;;;2055210;28;7148;-66
2020/12/17 04:39:56;;;;;;;;;;;;;;;;;;2054785;28;8048;-68
2020/12/17 04:41:05;;;;;;;;;;;;;;;;;;2055452;28;7010;-68
2020/12/17 04:42:07;;;;;;;;;;;;;;;;;;2055128;28;7093;-67
2020/12/17 04:43:09;;;;;;;;;;;;;;;;;;2055149;28;7025;-65
2020/12/17 04:44:11;;;;;;;;;;;;;;;;;;2054988;28;7009;-65
2020/12/17 04:45:13;;;;;;;;;;;;;;;;;;2055421;28;7010;-65
2020/12/17 04:46:18;;;;;;;;;;;;;;;;;;2054125;28;7389;-66
2020/12/17 04:47:21;;;;;;;;;;;;;;;;;;2054825;28;7109;-66
2020/12/17 04:48:25;;;;;;;;;;;;;;;;;;2055189;28;7009;-66
2020/12/17 04:49:33;;;;;;;;;;;;;;;;;;2054995;28;7089;-66
2020/12/17 04:50:35;;;;;;;;;;;;;;;;;;2054139;28;7014;-65
2020/12/17 04:51:38;;;;;;;;;;;;;;;;;;2054773;28;7006;-67
2020/12/17 04:52:41;;;;;;;;;;;;;;;;;;2054423;28;7092;-67
2020/12/17 04:53:44;;;;;;;;;;;;;;;;;;2063437;28;7297;-64
2020/12/17 04:54:46;;;;;;;;;;;;;;;;;;2063702;28;7071;-64
2020/12/17 04:55:51;;;;;;;;;;;;;;;;;;2053664;28;7104;-64
2020/12/17 04:57:12;;;;;;;;;;;;;;;;;;2054884;28;7017;-67
2020/12/17 04:58:19;;;;;;;;;;;;;;;;;;2055226;28;7031;-64
2020/12/17 04:59:35;;;;;;;;;;;;;;;;;;2054884;28;7109;-67
2020/12/17 05:00:39;;;;;;;;;;;;;;;;;;2054562;28;7089;-66
2020/12/17 05:01:54;;;;;;;;;;;;;;;;;;2054697;28;7014;-65
2020/12/17 05:02:56;;;;;;;;;;;;;;;;;;2054885;28;8045;-68
2020/12/17 05:03:59;;;;;;;;;;;;;;;;;;2055251;28;7066;-66
2020/12/17 05:05:01;;;;;;;;;;;;;;;;;;2055057;28;7014;-66
2020/12/17 05:06:06;;;;;;;;;;;;;;;;;;2054956;28;8111;-65
2020/12/17 05:07:12;;;;;;;;;;;;;;;;;;2054863;28;7017;-64
2020/12/17 05:08:14;;;;;;;;;;;;;;;;;;2054883;28;7018;-66
2020/12/17 05:09:17;;;;;;;;;;;;;;;;;;2055650;28;7339;-66
2020/12/17 05:10:19;;;;;;;;;;;;;;;;;;2055349;28;8040;-65
2020/12/17 05:11:21;;;;;;;;;;;;;;;;;;2053639;28;7038;-67
2020/12/17 05:12:23;;;;;;;;;;;;;;;;;;2055129;28;7364;-64
2020/12/17 05:13:25;;;;;;;;;;;;;;;;;;2054251;28;8093;-66
2020/12/17 05:14:28;;;;;;;;;;;;;;;;;;2053914;28;7089;-64
2020/12/17 05:15:30;;;;;;;;;;;;;;;;;;2054238;28;8447;-66
2020/12/17 05:16:32;;;;;;;;;;;;;;;;;;2055223;28;7399;-63
2020/12/17 05:17:34;;;;;;;;;;;;;;;;;;2055102;28;7292;-67
2020/12/17 05:18:36;;;;;;;;;;;;;;;;;;2054586;28;7029;-67
2020/12/17 05:19:42;;;;;;;;;;;;;;;;;;2061201;28;7010;-67
2020/12/17 05:20:44;;;;;;;;;;;;;;;;;;2062493;28;8091;-65
2020/12/17 05:21:47;;;;;;;;;;;;;;;;;;2055568;28;7097;-64
2020/12/17 05:22:50;;;;;;;;;;;;;;;;;;2054928;28;7089;-65
2020/12/17 05:23:53;;;;;;;;;;;;;;;;;;2055133;28;7038;-66
2020/12/17 05:24:57;;;;;;;;;;;;;;;;;;2055477;28;7038;-69
2020/12/17 05:25:59;;;;;;;;;;;;;;;;;;2055101;28;7116;-67
2020/12/17 05:27:01;;;;;;;;;;;;;;;;;;2055095;28;7144;-66
2020/12/17 05:28:04;;;;;;;;;;;;;;;;;;2055010;28;7010;-66
2020/12/17 05:29:07;;;;;;;;;;;;;;;;;;2054983;28;7089;-65
2020/12/17 05:30:09;;;;;;;;;;;;;;;;;;2055480;28;7138;-66
2020/12/17 05:31:19;;;;;;;;;;;;;;;;;;2054123;28;7046;-66
2020/12/17 05:32:21;;;;;;;;;;;;;;;;;;2055489;28;7010;-65
2020/12/17 05:33:23;;;;;;;;;;;;;;;;;;2054913;28;8024;-65
2020/12/17 05:34:26;;;;;;;;;;;;;;;;;;2055097;28;7017;-65
2020/12/17 05:35:35;;;;;;;;;;;;;;;;;;2054953;28;7050;-67
2020/12/17 05:36:39;;;;;;;;;;;;;;;;;;2054787;28;7092;-65
2020/12/17 05:37:41;;;;;;;;;;;;;;;;;;2054467;28;7006;-63
2020/12/17 05:38:43;;;;;;;;;;;;;;;;;;2054859;28;7329;-65
2020/12/17 05:39:45;;;;;;;;;;;;;;;;;;2054798;28;7013;-66
2020/12/17 05:40:47;;;;;;;;;;;;;;;;;;2055116;28;8007;-67
2020/12/17 05:41:51;;;;;;;;;;;;;;;;;;2062630;28;8148;-64
2020/12/17 05:42:53;;;;;;;;;;;;;;;;;;2054031;28;7042;-69
2020/12/17 05:44:06;;;;;;;;;;;;;;;;;;2055518;28;7101;-66
2020/12/17 05:45:24;;;;;;;;;;;;;;;;;;2055456;28;7031;-66
2020/12/17 05:46:37;;;;;;;;;;;;;;;;;;2054693;28;7385;-67
2020/12/17 05:47:39;;;;;;;;;;;;;;;;;;2054742;28;7046;-66
2020/12/17 05:48:40;;;;;;;;;;;;;;;;;;2054622;28;7053;-65
2020/12/17 05:49:42;;;;;;;;;;;;;;;;;;2054704;28;7014;-67
2020/12/17 05:50:49;;;;;;;;;;;;;;;;;;2054993;28;7100;-66
2020/12/17 05:52:11;;;;;;;;;;;;;;;;;;2054776;28;7013;-64
2020/12/17 05:53:14;;;;;;;;;;;;;;;;;;2054790;28;8108;-66
2020/12/17 05:54:24;;;;;;;;;;;;;;;;;;2054101;28;7014;-63
2020/12/17 05:55:27;;;;;;;;;;;;;;;;;;2054460;28;8104;-67
2020/12/17 05:56:30;;;;;;;;;;;;;;;;;;2055014;28;7009;-63
2020/12/17 05:57:32;;;;;;;;;;;;;;;;;;2055013;28;7013;-66
2020/12/17 05:58:44;;;;;;;;;;;;;;;;;;2054637;28;7018;-65
2020/12/17 05:59:57;;;;;;;;;;;;;;;;;;2055143;28;7025;-66
2020/12/17 06:01:16;;;;;;;;;;;;;;;;;;2054504;28;7097;-64
2020/12/17 06:02:23;;;;;;;;;;;;;;;;;;2054671;28;7084;-66
2020/12/17 06:03:27;;;;;;;;;;;;;;;;;;2054519;28;8064;-67
2020/12/17 06:04:29;;;;;;;;;;;;;;;;;;2053794;28;7014;-65
2020/12/17 06:05:42;;;;;;;;;;;;;;;;;;2058659;28;7090;-68
2020/12/17 06:06:48;;;;;;;;;;;;;;;;;;2062389;28;7059;-64
2020/12/17 06:07:51;;;;;;;;;;;;;;;;;;2054637;28;7108;-63
2020/12/17 06:09:04;;;;;;;;;;;;;;;;;;2056182;28;7046;-64
2020/12/17 06:10:08;;;;;;;;;;;;;;;;;;2056251;28;8060;-65
2020/12/17 06:11:13;;;;;;;;;;;;;;;;;;2055307;28;7009;-66
2020/12/17 06:12:18;;;;;;;;;;;;;;;;;;2055833;28;7045;-63
2020/12/17 06:13:21;;;;;;;;;;;;;;;;;;2056191;28;7038;-67
2020/12/17 06:14:23;;;;;;;;;;;;;;;;;;2059643;28;7010;-66
2020/12/17 06:15:29;;;;;;;;;;;;;;;;;;2064125;28;7234;-65
2020/12/17 06:16:32;;;;;;;;;;;;;;;;;;2064266;28;7009;-65
2020/12/17 06:17:38;;;;;;;;;;;;;;;;;;2063981;28;7097;-64
2020/12/17 06:18:42;;;;;;;;;;;;;;;;;;2064483;28;7105;-64
2020/12/17 06:19:45;;;;;;;;;;;;;;;;;;2055498;28;8128;-64
2020/12/17 06:20:49;;;;;;;;;;;;;;;;;;2056226;28;7014;-65
2020/12/17 06:21:51;;;;;;;;;;;;;;;;;;2064145;28;7113;-66
2020/12/17 06:22:55;;;;;;;;;;;;;;;;;;2064258;28;7116;-66
2020/12/17 06:23:58;;;;;;;;;;;;;;;;;;2063889;28;7093;-64
2020/12/17 06:25:00;;;;;;;;;;;;;;;;;;2063980;28;7122;-68
2020/12/17 06:26:06;;;;;;;;;;;;;;;;;;2064161;28;7134;-67
2020/12/17 06:27:09;;;;;;;;;;;;;;;;;;2064291;28;7403;-68
2020/12/17 06:28:34;;;;;;;;;;;;;;;;;;2063996;28;7316;-65
2020/12/17 06:29:47;;;;;;;;;;;;;;;;;;2056281;28;7117;-64
2020/12/17 06:30:55;;;;;;;;;;;;;;;;;;2056562;28;7092;-66
2020/12/17 06:31:58;;;;;;;;;;;;;;;;;;2056442;28;7006;-64
2020/12/17 06:33:05;;;;;;;;;;;;;;;;;;2056263;28;7137;-66
2020/12/17 06:34:07;;;;;;;;;;;;;;;;;;2056488;28;7014;-67
2020/12/17 06:35:29;;;;;;;;;;;;;;;;;;2056239;28;7005;-67
2020/12/17 06:36:31;;;;;;;;;;;;;;;;;;2048966;28;7038;-63
2020/12/17 06:37:35;;;;;;;;;;;;;;;;;;2056483;28;7010;-65
2020/12/17 06:38:39;;;;;;;;;;;;;;;;;;2056518;28;7097;-66
2020/12/17 06:39:48;;;;;;;;;;;;;;;;;;2056262;28;8104;-65
2020/12/17 06:40:51;;;;;;;;;;;;;;;;;;2064817;28;7014;-64
2020/12/17 06:41:53;;;;;;;;;;;;;;;;;;2064160;28;7531;-69
2020/12/17 06:42:55;;;;;;;;;;;;;;;;;;2063359;28;7009;-69
2020/12/17 06:43:58;;;;;;;;;;;;;;;;;;2055332;28;7088;-66
2020/12/17 06:45:00;;;;;;;;;;;;;;;;;;2054920;28;7161;-66
2020/12/17 06:46:03;;;;;;;;;;;;;;;;;;2056275;28;7062;-65
2020/12/17 06:47:05;;;;;;;;;;;;;;;;;;2056515;28;7010;-69
2020/12/17 06:48:25;;;;;;;;;;;;;;;;;;2054772;28;7097;-66
2020/12/17 06:49:28;;;;;;;;;;;;;;;;;;2056553;28;7021;-67
2020/12/17 06:50:38;;;;;;;;;;;;;;;;;;2055961;28;7100;-64
2020/12/17 06:51:41;;;;;;;;;;;;;;;;;;2056074;28;7050;-66
2020/12/17 06:53:01;;;;;;;;;;;;;;;;;;2055586;28;7013;-65
2020/12/17 06:54:07;;;;;;;;;;;;;;;;;;2055080;28;7066;-67
2020/12/17 06:55:29;;;;;;;;;;;;;;;;;;2055812;28;7014;-67
2020/12/17 06:56:32;;;;;;;;;;;;;;;;;;2056232;28;7389;-66
2020/12/17 06:57:36;;;;;;;;;;;;;;;;;;2056503;28;7085;-65
2020/12/17 06:58:38;;;;;;;;;;;;;;;;;;2056076;28;7033;-65
2020/12/17 06:59:41;;;;;;;;;;;;;;;;;;2056190;28;7046;-67
2020/12/17 07:00:43;;;;;;;;;;;;;;;;;;2056037;28;7306;-64
2020/12/17 07:01:48;;;;;;;;;;;;;;;;;;2055712;28;7014;-64
2020/12/17 07:02:50;;;;;;;;;;;;;;;;;;2055875;28;7046;-66
2020/12/17 07:03:53;;;;;;;;;;;;;;;;;;2055808;28;7048;-63
2020/12/17 07:04:55;;;;;;;;;;;;;;;;;;2055958;28;7045;-64
2020/12/17 07:06:10;;;;;;;;;;;;;;;;;;2055840;28;7038;-66
2020/12/17 07:07:15;;;;;;;;;;;;;;;;;;2055820;28;7092;-66
2020/12/17 07:08:34;;;;;;;;;;;;;;;;;;2056055;28;7046;-65
2020/12/17 07:09:37;;;;;;;;;;;;;;;;;;2055593;28;7058;-66
2020/12/17 07:10:39;;;;;;;;;;;;;;;;;;2056103;28;7049;-65
2020/12/17 07:11:45;;;;;;;;;;;;;;;;;;2054776;28;7010;-62
2020/12/17 07:12:48;;;;;;;;;;;;;;;;;;2055736;28;8032;-66
2020/12/17 07:13:54;;;;;;;;;;;;;;;;;;2055702;28;7046;-65
2020/12/17 07:14:56;;;;;;;;;;;;;;;;;;2056100;28;7018;-66
2020/12/17 07:15:58;;;;;;;;;;;;;;;;;;2055732;28;8013;-64
2020/12/17 07:17:02;;;;;;;;;;;;;;;;;;2055675;28;7325;-64
2020/12/17 07:18:23;;;;;;;;;;;;;;;;;;2055716;28;7018;-65
2020/12/17 07:19:34;;;;;;;;;;;;;;;;;;2055619;28;7117;-65
2020/12/17 07:20:37;;;;;;;;;;;;;;;;;;2055880;28;7082;-64
2020/12/17 07:21:40;;;;;;;;;;;;;;;;;;2061755;28;8104;-66
2020/12/17 07:23:04;;;;;;;;;;;;;;;;;;2063959;28;7054;-67